Terminal Aerodrome Forecast
Issued by NWS Green Bay, WI

Home | Current Version | Previous Version | Text Only | Print | Product List | Glossary Off
Versions: 1 2 3 4 5 6 7 8 9 10 11 12 13 14 15 16 17 18 19 20 21 22 23 24 25 26 27 28 29 30

235
FTUS43 KGRB 182032 AAA
TAFGRB
TAF AMD
KGRB 182032Z 1821/1918 05015G22KT P6SM SCT030 BKN100
     FM190100 02014G20KT P6SM SCT035 BKN150
     FM190300 01012G19KT P6SM SCT150 WS015/03040KT
     FM190900 35011G18KT P6SM SKC=

USA.gov is the U.S. government's official web portal to all federal, state and local government web resources and services.